createdAt,value
2023-03-26T00:00:09.012Z,8.70
2023-03-26T00:02:39.045Z,8.70
2023-03-26T00:05:06.942Z,8.70
2023-03-26T00:07:34.352Z,8.60
2023-03-26T00:10:01.014Z,8.50
2023-03-26T00:12:28.327Z,8.50
2023-03-26T00:14:55.425Z,8.50
2023-03-26T00:17:22.137Z,8.70
2023-03-26T00:19:48.894Z,8.60
2023-03-26T00:22:16.333Z,8.60
2023-03-26T00:24:45.255Z,8.60
2023-03-26T00:27:11.912Z,8.60
2023-03-26T00:29:39.392Z,8.70
2023-03-26T00:32:06.376Z,8.60
2023-03-26T00:34:33.751Z,8.60
2023-03-26T00:37:01.976Z,10.40
2023-03-26T00:39:28.864Z,8.70
2023-03-26T00:41:55.603Z,8.70
2023-03-26T00:44:22.457Z,8.70
2023-03-26T00:46:49.854Z,8.70
2023-03-26T00:49:16.484Z,8.70
2023-03-26T00:51:43.119Z,8.70
2023-03-26T00:54:10.318Z,8.70
2023-03-26T00:56:38.002Z,8.70
2023-03-26T00:59:04.669Z,8.70
2023-03-26T01:01:31.702Z,8.70
2023-03-26T01:04:23.392Z,8.50
2023-03-26T01:06:50.218Z,9.00
2023-03-26T01:09:19.496Z,8.70
2023-03-26T01:11:47.377Z,8.70
2023-03-26T01:14:17.484Z,8.80
2023-03-26T01:16:49.164Z,8.80
2023-03-26T01:19:23.566Z,8.80
2023-03-26T01:21:50.289Z,8.80
2023-03-26T01:24:17.639Z,8.50
2023-03-26T01:27:12.318Z,8.70
2023-03-26T01:29:43.977Z,8.70
2023-03-26T01:32:22.946Z,8.60
2023-03-26T01:35:03.983Z,8.50
2023-03-26T01:37:38.268Z,8.40
2023-03-26T01:40:11.745Z,8.40
2023-03-26T01:42:45.077Z,8.20
2023-03-26T01:45:15.980Z,8.30
2023-03-26T01:47:43.898Z,8.30
2023-03-26T01:50:11.091Z,8.30
2023-03-26T01:52:37.899Z,8.20
2023-03-26T01:55:10.919Z,8.10
2023-03-26T01:57:47.170Z,8.10
2023-03-26T02:00:22.864Z,8.10
2023-03-26T02:03:16.807Z,8.20
2023-03-26T02:05:50.732Z,8.20
2023-03-26T02:08:22.885Z,8.20
2023-03-26T02:10:54.190Z,6.90
2023-03-26T02:13:21.139Z,8.20
2023-03-26T02:15:58.992Z,8.10
2023-03-26T02:18:35.956Z,8.10
2023-03-26T02:21:04.720Z,8.10
2023-03-26T02:23:35.020Z,8.00
2023-03-26T02:26:05.568Z,8.00
2023-03-26T02:28:32.504Z,8.20
2023-03-26T02:31:01.131Z,7.50
2023-03-26T02:33:28.036Z,6.80
2023-03-26T02:35:58.784Z,8.00
2023-03-26T02:38:26.234Z,8.00
2023-03-26T02:40:53.385Z,8.00
2023-03-26T02:43:21.023Z,8.10
2023-03-26T02:45:47.850Z,7.90
2023-03-26T02:48:14.826Z,7.90
2023-03-26T02:50:41.798Z,7.90
2023-03-26T02:53:08.673Z,7.90
2023-03-26T02:55:35.444Z,7.90
2023-03-26T02:58:02.206Z,7.70
2023-03-26T03:00:29.588Z,7.90
2023-03-26T03:02:57.435Z,7.90
2023-03-26T03:05:25.862Z,8.00
2023-03-26T03:07:57.243Z,8.00
2023-03-26T03:10:25.003Z,8.00
2023-03-26T03:12:51.786Z,8.00
2023-03-26T03:15:18.582Z,8.10
2023-03-26T03:17:46.016Z,8.10
2023-03-26T03:20:13.130Z,8.00
2023-03-26T03:22:40.480Z,8.10
2023-03-26T03:25:08.682Z,8.10
2023-03-26T03:27:38.570Z,8.20
2023-03-26T03:30:06.581Z,8.10
2023-03-26T03:32:33.378Z,8.10
2023-03-26T03:35:00.847Z,8.10
2023-03-26T03:37:27.537Z,8.10
2023-03-26T03:39:54.157Z,8.10
2023-03-26T03:42:20.886Z,8.10
2023-03-26T03:44:47.614Z,8.20
2023-03-26T03:47:15.098Z,8.20
2023-03-26T03:49:41.802Z,8.20
2023-03-26T03:52:09.169Z,8.20
2023-03-26T03:54:35.831Z,8.20
2023-03-26T03:57:02.752Z,8.20
2023-03-26T03:59:29.481Z,8.20
2023-03-26T04:01:56.188Z,8.20
2023-03-26T04:04:23.905Z,8.20
2023-03-26T04:06:51.197Z,8.20
2023-03-26T04:09:18.585Z,8.20
2023-03-26T04:11:45.326Z,8.30
2023-03-26T04:14:11.990Z,8.20
2023-03-26T04:16:38.679Z,8.20
2023-03-26T04:19:05.356Z,8.20
2023-03-26T04:21:33.276Z,8.20
2023-03-26T04:24:01.456Z,8.20
2023-03-26T04:26:30.250Z,8.20
2023-03-26T04:29:00.233Z,8.20
2023-03-26T04:31:28.660Z,8.20
2023-03-26T04:33:59.417Z,8.20
2023-03-26T04:36:28.663Z,8.20
2023-03-26T04:38:57.641Z,8.20
2023-03-26T04:41:25.882Z,8.30
2023-03-26T04:43:53.322Z,8.20
2023-03-26T04:46:21.555Z,8.10
2023-03-26T04:48:48.255Z,8.10
2023-03-26T04:51:17.436Z,8.10
2023-03-26T04:53:49.025Z,8.10
2023-03-26T04:56:29.334Z,8.00
2023-03-26T04:59:01.256Z,8.00
2023-03-26T05:01:29.982Z,7.90
2023-03-26T05:03:57.929Z,8.00
2023-03-26T05:06:27.221Z,7.90
2023-03-26T05:08:54.373Z,8.00
2023-03-26T05:11:21.069Z,7.60
2023-03-26T05:13:47.757Z,8.00
2023-03-26T05:16:15.103Z,8.00
2023-03-26T05:18:41.784Z,8.00
2023-03-26T05:21:08.386Z,8.80
2023-03-26T05:23:35.032Z,8.00
2023-03-26T05:26:01.689Z,8.00
2023-03-26T05:28:28.333Z,8.00
2023-03-26T05:30:55.300Z,8.10
2023-03-26T05:33:23.208Z,8.10
2023-03-26T05:36:00.277Z,8.00
2023-03-26T05:38:28.553Z,8.00
2023-03-26T05:40:58.790Z,8.00
2023-03-26T05:43:25.539Z,8.10
2023-03-26T05:45:52.494Z,8.10
2023-03-26T05:48:20.207Z,8.10
2023-03-26T05:50:48.863Z,8.10
2023-03-26T05:53:15.616Z,8.20
2023-03-26T05:55:45.040Z,8.20
2023-03-26T05:58:12.111Z,8.20
2023-03-26T06:00:39.046Z,8.20
2023-03-26T06:03:11.739Z,8.20
2023-03-26T06:05:39.343Z,8.30
2023-03-26T06:08:07.080Z,8.20
2023-03-26T06:10:33.774Z,8.20
2023-03-26T06:13:00.622Z,8.20
2023-03-26T06:15:27.317Z,8.30
2023-03-26T06:17:54.050Z,8.10
2023-03-26T06:20:20.837Z,8.10
2023-03-26T06:22:47.748Z,8.20
2023-03-26T06:25:15.475Z,8.10
2023-03-26T06:27:42.268Z,8.30
2023-03-26T06:30:09.895Z,8.30
2023-03-26T06:32:36.753Z,8.30
2023-03-26T06:35:03.678Z,8.40
2023-03-26T06:37:30.447Z,8.40
2023-03-26T06:39:57.188Z,8.40
2023-03-26T06:42:32.169Z,8.80
2023-03-26T06:45:11.570Z,8.30
2023-03-26T06:47:38.424Z,8.30
2023-03-26T06:50:06.411Z,8.30
2023-03-26T06:52:33.111Z,8.30
2023-03-26T06:55:00.238Z,8.30
2023-03-26T06:57:27.613Z,8.10
2023-03-26T06:59:54.372Z,7.80
2023-03-26T07:02:21.225Z,8.00
2023-03-26T07:04:48.029Z,8.00
2023-03-26T07:07:14.960Z,8.10
2023-03-26T07:09:41.638Z,8.20
2023-03-26T07:12:08.375Z,8.30
2023-03-26T07:14:38.005Z,8.50
2023-03-26T07:17:05.100Z,8.60
2023-03-26T07:19:32.029Z,8.70
2023-03-26T07:21:59.346Z,8.80
2023-03-26T07:24:26.864Z,9.00
2023-03-26T07:27:00.566Z,8.90
2023-03-26T07:29:34.662Z,8.80
2023-03-26T07:32:12.148Z,9.40
2023-03-26T07:34:50.190Z,8.90
2023-03-26T07:37:27.731Z,9.10
2023-03-26T07:40:00.227Z,9.20
2023-03-26T07:42:40.364Z,9.10
2023-03-26T07:45:19.246Z,9.10
2023-03-26T07:47:49.190Z,9.00
2023-03-26T07:50:19.145Z,9.00
2023-03-26T07:52:46.306Z,9.10
2023-03-26T07:55:14.780Z,9.00
2023-03-26T07:57:55.631Z,9.00
2023-03-26T08:00:28.820Z,8.90
2023-03-26T08:03:21.326Z,9.00
2023-03-26T08:05:53.303Z,8.90
2023-03-26T08:08:32.097Z,9.10
2023-03-26T08:11:13.548Z,9.00
2023-03-26T08:13:52.960Z,9.10
2023-03-26T08:16:25.171Z,9.30
2023-03-26T08:18:59.810Z,9.10
2023-03-26T08:21:33.179Z,9.00
2023-03-26T08:24:05.686Z,9.00
2023-03-26T08:26:39.401Z,9.00
2023-03-26T08:29:17.775Z,9.20
2023-03-26T08:31:46.179Z,9.10
2023-03-26T08:34:13.936Z,8.80
2023-03-26T08:36:40.714Z,8.80
2023-03-26T08:39:08.281Z,8.90
2023-03-26T08:42:03.378Z,8.80
2023-03-26T08:45:02.564Z,8.90
2023-03-26T08:48:02.961Z,9.10
2023-03-26T08:51:27.367Z,9.10
2023-03-26T08:54:23.927Z,9.10
2023-03-26T08:56:57.488Z,9.00
2023-03-26T08:59:56.044Z,9.00
2023-03-26T09:02:48.344Z,9.10
2023-03-26T09:05:34.718Z,9.30
2023-03-26T09:08:30.128Z,9.30
2023-03-26T09:11:22.524Z,9.30
2023-03-26T09:14:13.250Z,9.20
2023-03-26T09:17:04.755Z,9.20
2023-03-26T09:20:13.514Z,9.10
2023-03-26T09:23:17.485Z,9.20
2023-03-26T09:26:10.623Z,9.40
2023-03-26T09:29:16.150Z,9.40
2023-03-26T09:32:05.035Z,9.40
2023-03-26T09:34:35.310Z,9.60
2023-03-26T09:37:17.797Z,9.60
2023-03-26T09:40:04.349Z,9.40
2023-03-26T09:42:43.130Z,9.30
2023-03-26T09:45:39.901Z,9.40
2023-03-26T09:48:30.127Z,8.90
2023-03-26T09:51:19.778Z,8.90
2023-03-26T09:54:27.369Z,8.80
2023-03-26T09:57:08.517Z,8.60
2023-03-26T10:00:04.132Z,8.10
2023-03-26T10:02:55.189Z,8.10
2023-03-26T10:05:33.631Z,8.20
2023-03-26T10:08:13.739Z,8.20
2023-03-26T10:10:46.783Z,7.90
2023-03-26T10:13:27.617Z,8.00
2023-03-26T10:16:09.830Z,7.90
2023-03-26T10:18:51.191Z,8.00
2023-03-26T10:21:28.590Z,8.20
2023-03-26T10:24:11.517Z,8.60
2023-03-26T10:27:09.033Z,8.80
2023-03-26T10:30:07.706Z,8.70
2023-03-26T10:32:44.679Z,8.90
2023-03-26T10:35:23.645Z,8.80
2023-03-26T10:38:04.685Z,8.80
2023-03-26T10:40:35.550Z,8.70
2023-03-26T10:43:47.953Z,8.70
2023-03-26T10:46:36.139Z,8.80
2023-03-26T10:49:50.112Z,8.80
2023-03-26T10:52:21.136Z,8.80
2023-03-26T10:54:55.662Z,8.90
2023-03-26T10:57:35.443Z,9.10
2023-03-26T11:00:26.558Z,9.30
2023-03-26T11:03:20.690Z,9.30
2023-03-26T11:05:55.089Z,9.50
2023-03-26T11:08:36.686Z,9.70
2023-03-26T11:11:10.118Z,9.20
2023-03-26T11:13:45.995Z,9.30
2023-03-26T11:16:19.320Z,9.50
2023-03-26T11:18:52.986Z,9.50
2023-03-26T11:21:27.251Z,9.60
2023-03-26T11:24:06.474Z,9.90
2023-03-26T11:26:41.780Z,10.40
2023-03-26T11:29:31.808Z,10.70
2023-03-26T11:32:05.814Z,10.70
2023-03-26T11:34:38.248Z,10.60
2023-03-26T11:37:15.345Z,10.10
2023-03-26T11:39:49.289Z,10.40
2023-03-26T11:42:18.593Z,10.90
2023-03-26T11:44:52.486Z,10.90
2023-03-26T11:47:24.469Z,10.80
2023-03-26T11:49:55.530Z,10.90
2023-03-26T11:52:22.936Z,11.00
2023-03-26T11:54:49.972Z,10.90
2023-03-26T11:57:21.622Z,11.10
2023-03-26T11:59:57.522Z,11.20
2023-03-26T12:02:28.693Z,11.30
2023-03-26T12:05:12.454Z,11.10
2023-03-26T12:07:46.502Z,11.20
2023-03-26T12:10:28.281Z,11.20
2023-03-26T12:12:58.098Z,11.10
2023-03-26T12:15:25.968Z,11.20
2023-03-26T12:17:56.467Z,11.20
2023-03-26T12:20:35.970Z,11.40
2023-03-26T12:23:05.848Z,11.60
2023-03-26T12:25:34.679Z,11.60
2023-03-26T12:28:03.198Z,11.70
2023-03-26T12:30:33.149Z,11.70
2023-03-26T12:33:02.932Z,11.50
2023-03-26T12:35:31.503Z,11.60
2023-03-26T12:38:15.679Z,11.60
2023-03-26T12:40:42.651Z,12.00
2023-03-26T12:44:48.224Z,12.00
2023-03-26T12:47:54.155Z,12.20
2023-03-26T12:49:11.834Z,12.00
2023-03-26T12:51:46.988Z,12.30
2023-03-26T12:54:26.078Z,12.50
2023-03-26T12:57:12.148Z,12.90
2023-03-26T12:59:49.773Z,13.40
2023-03-26T13:02:48.554Z,13.10
2023-03-26T13:05:28.727Z,11.60
2023-03-26T13:08:06.924Z,12.00
2023-03-26T13:10:50.675Z,12.00
2023-03-26T13:13:44.933Z,12.10
2023-03-26T13:16:23.612Z,12.20
2023-03-26T13:18:55.503Z,12.30
2023-03-26T13:21:31.158Z,11.90
2023-03-26T13:24:10.639Z,11.80
2023-03-26T13:26:54.205Z,11.90
2023-03-26T13:29:28.090Z,12.20
2023-03-26T13:32:06.415Z,12.10
2023-03-26T13:34:53.441Z,12.00
2023-03-26T13:37:25.247Z,12.40
2023-03-26T13:40:04.529Z,12.60
2023-03-26T13:42:46.228Z,12.90
2023-03-26T13:45:28.019Z,11.90
2023-03-26T13:47:58.170Z,12.10
2023-03-26T13:50:28.692Z,12.30
2023-03-26T13:53:00.316Z,12.30
2023-03-26T13:55:30.621Z,12.50
2023-03-26T13:58:04.279Z,12.30
2023-03-26T14:00:42.645Z,12.40
2023-03-26T14:03:17.284Z,12.30
2023-03-26T14:05:47.010Z,12.10
2023-03-26T14:08:21.781Z,12.00
2023-03-26T14:10:53.257Z,13.00
2023-03-26T14:13:26.479Z,13.90
2023-03-26T14:15:56.833Z,13.60
2023-03-26T14:18:32.237Z,14.10
2023-03-26T14:21:28.526Z,15.10
2023-03-26T14:24:23.381Z,15.30
2023-03-26T14:27:06.005Z,15.70
2023-03-26T14:29:57.117Z,15.80
2023-03-26T14:32:46.605Z,16.10
2023-03-26T14:35:34.382Z,17.10
2023-03-26T14:38:39.575Z,16.00
2023-03-26T14:41:17.657Z,16.10
2023-03-26T14:44:25.874Z,16.50
2023-03-26T14:47:14.529Z,15.00
2023-03-26T14:50:20.854Z,15.20
2023-03-26T14:52:49.383Z,14.50
2023-03-26T14:55:31.355Z,14.50
2023-03-26T14:58:33.354Z,14.10
2023-03-26T15:01:23.123Z,14.20
2023-03-26T15:04:38.736Z,13.90
2023-03-26T15:07:38.546Z,14.20
2023-03-26T15:10:31.495Z,13.80
2023-03-26T15:13:20.335Z,14.00
2023-03-26T15:16:18.099Z,13.50
2023-03-26T15:19:29.971Z,12.90
2023-03-26T15:22:46.908Z,12.60
2023-03-26T15:25:46.557Z,12.20
2023-03-26T15:28:38.451Z,11.90
2023-03-26T15:31:35.981Z,12.00
2023-03-26T15:34:33.012Z,12.20
2023-03-26T15:37:38.492Z,12.20
2023-03-26T15:40:35.648Z,12.00
2023-03-26T15:43:10.235Z,11.70
2023-03-26T15:45:39.298Z,11.90
2023-03-26T15:48:33.514Z,12.10
2023-03-26T15:51:21.664Z,12.40
2023-03-26T15:53:54.515Z,12.10
2023-03-26T15:56:33.781Z,12.00
2023-03-26T15:59:06.830Z,12.10
2023-03-26T16:01:50.047Z,11.70
2023-03-26T16:04:25.742Z,11.50
2023-03-26T16:07:03.006Z,11.30
2023-03-26T16:09:50.898Z,11.40
2023-03-26T16:12:35.982Z,11.50
2023-03-26T16:15:28.797Z,11.70
2023-03-26T16:18:25.830Z,11.70
2023-03-26T16:20:54.938Z,11.60
2023-03-26T16:23:28.848Z,11.50
2023-03-26T16:26:00.901Z,11.10
2023-03-26T16:28:33.598Z,11.30
2023-03-26T16:31:36.746Z,11.20
2023-03-26T16:34:27.990Z,10.80
2023-03-26T16:36:57.330Z,11.10
2023-03-26T16:39:37.403Z,11.10
2023-03-26T16:42:26.357Z,11.20
2023-03-26T16:45:08.857Z,11.10
2023-03-26T16:47:45.460Z,11.00
2023-03-26T16:50:25.224Z,10.80
2023-03-26T16:53:00.236Z,10.70
2023-03-26T16:55:40.372Z,10.90
2023-03-26T16:58:21.281Z,10.70
2023-03-26T17:00:54.317Z,10.50
2023-03-26T17:03:33.285Z,10.10
2023-03-26T17:06:13.783Z,10.30
2023-03-26T17:08:48.141Z,10.50
2023-03-26T17:11:26.995Z,10.40
2023-03-26T17:14:06.029Z,10.20
2023-03-26T17:16:38.886Z,10.10
2023-03-26T17:19:17.049Z,10.10
2023-03-26T17:21:52.154Z,10.00
2023-03-26T17:24:29.820Z,10.00
2023-03-26T17:27:16.782Z,10.00
2023-03-26T17:30:10.862Z,10.00
2023-03-26T17:32:58.022Z,9.90
2023-03-26T17:35:41.134Z,9.90
2023-03-26T17:38:40.410Z,9.80
2023-03-26T17:41:13.423Z,9.70
2023-03-26T17:43:46.158Z,9.60
2023-03-26T17:46:26.449Z,9.80
2023-03-26T17:48:59.225Z,9.80
2023-03-26T17:51:45.808Z,9.80
2023-03-26T17:54:22.423Z,9.80
2023-03-26T17:56:51.516Z,9.80
2023-03-26T17:59:24.071Z,9.90
2023-03-26T18:01:54.719Z,9.80
2023-03-26T18:04:34.951Z,9.70
2023-03-26T18:07:43.436Z,9.70
2023-03-26T18:10:32.442Z,9.70
2023-03-26T18:13:34.112Z,9.70
2023-03-26T18:16:12.813Z,9.70
2023-03-26T18:18:47.731Z,9.60
2023-03-26T18:21:21.734Z,9.60
2023-03-26T18:23:50.307Z,9.70
2023-03-26T18:26:20.765Z,9.70
2023-03-26T18:28:52.569Z,9.80
2023-03-26T18:31:22.535Z,9.70
2023-03-26T18:33:53.673Z,9.70
2023-03-26T18:36:25.516Z,9.70
2023-03-26T18:38:57.600Z,9.70
2023-03-26T18:41:28.374Z,9.60
2023-03-26T18:43:55.428Z,9.70
2023-03-26T18:46:23.550Z,9.60
2023-03-26T18:48:51.570Z,9.60
2023-03-26T18:51:22.207Z,9.60
2023-03-26T18:53:54.292Z,9.60
2023-03-26T18:56:29.909Z,9.60
2023-03-26T18:58:58.323Z,9.60
2023-03-26T19:01:30.126Z,9.50
2023-03-26T19:03:58.994Z,9.50
2023-03-26T19:06:26.777Z,9.40
2023-03-26T19:08:54.496Z,9.30
2023-03-26T19:11:21.573Z,9.30
2023-03-26T19:13:59.153Z,9.20
2023-03-26T19:16:32.929Z,9.10
2023-03-26T19:19:01.118Z,9.00
2023-03-26T19:21:28.813Z,9.00
2023-03-26T19:23:56.099Z,8.80
2023-03-26T19:26:22.794Z,8.90
2023-03-26T19:28:52.751Z,8.90
2023-03-26T19:31:23.740Z,8.90
2023-03-26T19:33:57.051Z,8.80
2023-03-26T19:36:25.594Z,8.80
2023-03-26T19:39:02.109Z,8.80
2023-03-26T19:41:33.740Z,8.80
2023-03-26T19:44:02.249Z,8.60
2023-03-26T19:46:33.848Z,8.80
2023-03-26T19:49:28.550Z,8.80
2023-03-26T19:52:12.375Z,8.70
2023-03-26T19:54:59.755Z,8.60
2023-03-26T19:57:28.912Z,8.60
2023-03-26T19:59:55.814Z,8.60
2023-03-26T20:02:23.309Z,8.60
2023-03-26T20:04:50.398Z,8.60
2023-03-26T20:07:18.418Z,8.50
2023-03-26T20:09:46.080Z,8.50
2023-03-26T20:12:14.427Z,8.40
2023-03-26T20:14:42.824Z,8.40
2023-03-26T20:17:13.463Z,8.40
2023-03-26T20:19:40.423Z,8.30
2023-03-26T20:22:12.597Z,8.30
2023-03-26T20:24:39.320Z,8.20
2023-03-26T20:27:06.880Z,8.10
2023-03-26T20:29:33.698Z,8.10
2023-03-26T20:32:00.525Z,8.10
2023-03-26T20:34:27.465Z,8.00
2023-03-26T20:36:55.643Z,7.80
2023-03-26T20:39:23.651Z,7.70
2023-03-26T20:41:52.644Z,7.70
2023-03-26T20:44:22.106Z,7.70
2023-03-26T20:46:49.808Z,7.60
2023-03-26T20:49:17.510Z,7.60
2023-03-26T20:51:44.945Z,7.50
2023-03-26T20:54:17.362Z,7.50
2023-03-26T20:56:45.000Z,7.50
2023-03-26T20:59:17.357Z,7.50
2023-03-26T21:01:46.387Z,7.50
2023-03-26T21:04:13.215Z,7.50
2023-03-26T21:06:39.895Z,7.40
2023-03-26T21:09:09.249Z,7.50
2023-03-26T21:11:47.186Z,7.40
2023-03-26T21:14:20.477Z,7.30
2023-03-26T21:16:48.781Z,7.30
2023-03-26T21:19:16.212Z,7.40
2023-03-26T21:21:55.422Z,7.40
2023-03-26T21:24:34.078Z,7.30
2023-03-26T21:27:09.521Z,7.10
2023-03-26T21:29:37.419Z,7.20
2023-03-26T21:32:05.675Z,7.20
2023-03-26T21:34:33.567Z,7.30
2023-03-26T21:37:01.732Z,7.20
2023-03-26T21:39:29.231Z,7.30
2023-03-26T21:42:05.180Z,7.20
2023-03-26T21:44:33.299Z,7.20
2023-03-26T21:47:00.916Z,7.20
2023-03-26T21:49:30.160Z,7.10
2023-03-26T21:51:57.429Z,7.00
2023-03-26T21:54:26.302Z,7.00
2023-03-26T21:57:10.880Z,6.90
2023-03-26T21:59:44.875Z,7.00
2023-03-26T22:02:19.107Z,7.00
2023-03-26T22:04:51.573Z,6.90
2023-03-26T22:07:22.557Z,7.00
2023-03-26T22:09:49.851Z,7.00
2023-03-26T22:12:17.067Z,7.00
2023-03-26T22:14:44.242Z,6.90
2023-03-26T22:17:10.943Z,6.80
2023-03-26T22:19:37.751Z,6.80
2023-03-26T22:22:05.206Z,6.80
2023-03-26T22:24:32.182Z,6.70
2023-03-26T22:26:58.871Z,6.70
2023-03-26T22:29:26.706Z,6.50
2023-03-26T22:31:53.443Z,6.50
2023-03-26T22:34:20.548Z,6.50
2023-03-26T22:36:47.339Z,6.50
2023-03-26T22:39:14.866Z,6.40
2023-03-26T22:41:41.592Z,6.40
2023-03-26T22:44:18.926Z,6.20
2023-03-26T22:46:48.242Z,6.00
2023-03-26T22:49:14.983Z,6.20
2023-03-26T22:51:41.697Z,6.30
2023-03-26T22:54:08.811Z,6.30
2023-03-26T22:56:36.357Z,6.20
2023-03-26T22:59:03.373Z,6.20
2023-03-26T23:01:30.893Z,6.20
2023-03-26T23:03:57.614Z,6.20
2023-03-26T23:06:24.946Z,6.20
2023-03-26T23:08:51.718Z,6.10
2023-03-26T23:11:21.256Z,6.20
2023-03-26T23:13:49.390Z,6.20
2023-03-26T23:16:17.184Z,6.10
2023-03-26T23:18:44.288Z,6.10
2023-03-26T23:21:14.039Z,6.10
2023-03-26T23:23:41.539Z,6.20
2023-03-26T23:26:08.373Z,6.00
2023-03-26T23:28:35.577Z,5.90
2023-03-26T23:31:05.584Z,5.90
2023-03-26T23:33:34.638Z,5.80
2023-03-26T23:36:08.081Z,5.50
2023-03-26T23:38:43.372Z,5.70
2023-03-26T23:41:14.257Z,5.70
2023-03-26T23:43:54.720Z,5.70
2023-03-26T23:46:24.441Z,5.70
2023-03-26T23:48:51.723Z,5.60
2023-03-26T23:51:19.296Z,5.50
2023-03-26T23:53:46.748Z,5.50
2023-03-26T23:56:14.579Z,5.50
2023-03-26T23:58:41.265Z,5.50
